Somerton, AZ

6:34 PM MST on September 01, 2015 (GMT -0700)
Caballero Park | | Change Station
CLOSE
Current Station
Personal Weather Station
Location: Yuma, AZ
Elevation: 200 ft
Nearby Weather Stations

Elev 200 ft 32.67 °N, 114.63 °W | Updated 9 minutes ago

Mostly Cloudy
Mostly Cloudy
98.2 °F
Feels Like 97 °F
N
6.3
Wind Variable Wind from SSE

Today
High -- | Low -- °F
--% Chance of Precip.
Yesterday
High -- | Low -- °F
Precip. -- in
6:13 AM 7:03 PM
Waning Gibbous, 85% visible
Pressure 29.73 in
Visibility 10.0 miles
Clouds Few 4000 ft
Scattered Clouds 20000 ft
Mostly Cloudy 25000 ft
Heat Index 97 °F
Dew Point 56 °F
Humidity 25%
Rainfall 0.00 in
Snow Depth Not available.
UV 0 out of 12
Pollen 6.90 out of 12
Air Quality Not available.
Flu Activity Not available.
METAR KNYL 020057Z 16013KT 10SM FEW040 SCT200 BKN250 38/09 A2974 RMK AO2 SLP067 T03830094
Pressure 29.73 in
Visibility 10.0 miles
Clouds Few 4000 ft
Scattered Clouds 20000 ft
Mostly Cloudy 25000 ft
Heat Index 97 °F
Dew Point 56 °F
Humidity 25%
Rainfall 0.00 in
Snow Depth Not available.
UV 0 out of 12
Pollen 6.90 out of 12
Air Quality Not available.
Flu Activity Not available.
METAR KNYL 020057Z 16013KT 10SM FEW040 SCT200 BKN250 38/09 A2974 RMK AO2 SLP067 T03830094

10-Day Weather Forecast

×

Almanac

Astronomy

Sep. 01, 2015 Rise Set
Actual Time
Civil Twilight
Nautical Twilight
Astronomical Twilight
Moon
Length of Visible Light
Length of Day
Tomorrow will be .
, % of the Moon is Illuminated

Today's Extremes

State Highs State Lows

Community

WunderPhotos

Upload Photos

1,851,672 photos uploaded!

WunderBlogs® & News

Nearby

Air Quality

  Air Quality AQ Index Pollutant
Not available.

Snow Depth

Station Depth Elevation

Earthquake Activity

City Distance Mag. Time & Date
Minimum magnitude displayed is 2.5.

Coastal Water Temperatures

Place Temperature

Stations

Nearby Weather Stations

Station Location Temp. Windchill Dew Point Humidity Wind Precip. Elev Updated Type